Time;durP1;ratioP1;P1;durP2;ratioP2;P2;SDS_P1;SDS_P2;PMS_P1;PMS_P2;Temp;Humidity;BMP_temperature;BMP_pressure;BME280_temperature;BME280_humidity;BME280_pressure;Samples;Min_cycle;Max_cycle;Signal;HPM_P1;HPM_P2
2021/04/15 00:01:40;;;;;;;10.77;8.10;;;;;;;;;;5097077;28;20183;-75
2021/04/15 00:04:06;;;;;;;10.02;8.18;;;;;;;;;;5096155;28;20187;-76
2021/04/15 00:06:32;;;;;;;13.70;9.13;;;;;;;;;;5096343;28;20227;-76
2021/04/15 00:08:59;;;;;;;9.75;8.73;;;;;;;;;;5096563;28;20296;-76
2021/04/15 00:11:28;;;;;;;9.00;8.10;;;;;;;;;;5095655;28;20648;-77
2021/04/15 00:13:55;;;;;;;10.45;8.60;;;;;;;;;;5103813;28;20187;-77
2021/04/15 00:16:22;;;;;;;10.15;8.18;;;;;;;;;;5099388;28;20203;-77
2021/04/15 00:18:48;;;;;;;13.07;8.95;;;;;;;;;;5096027;28;20620;-77
2021/04/15 00:21:14;;;;;;;12.20;8.27;;;;;;;;;;5108315;28;20183;-77
2021/04/15 00:23:40;;;;;;;12.63;8.10;;;;;;;;;;5115836;28;20879;-78
2021/04/15 00:26:08;;;;;;;10.40;8.25;;;;;;;;;;5095973;28;20192;-77
2021/04/15 00:28:35;;;;;;;12.07;8.45;;;;;;;;;;5097957;28;20188;-77
2021/04/15 00:31:01;;;;;;;11.90;8.35;;;;;;;;;;5099523;28;20643;-76
2021/04/15 00:33:27;;;;;;;9.75;7.72;;;;;;;;;;5094615;28;20544;-76
2021/04/15 00:35:53;;;;;;;11.38;8.77;;;;;;;;;;5095696;28;20288;-76
2021/04/15 00:38:20;;;;;;;10.90;8.43;;;;;;;;;;5096200;28;20186;-77
2021/04/15 00:40:47;;;;;;;13.60;7.88;;;;;;;;;;5095308;28;20182;-75
2021/04/15 00:43:13;;;;;;;8.73;7.60;;;;;;;;;;5095391;28;20179;-76
2021/04/15 00:45:40;;;;;;;11.00;8.10;;;;;;;;;;5095339;28;20187;-76
2021/04/15 00:48:06;;;;;;;12.30;9.00;;;;;;;;;;5114619;28;20504;-76
2021/04/15 00:50:35;;;;;;;12.07;8.45;;;;;;;;;;5116237;28;20271;-76
2021/04/15 00:53:02;;;;;;;10.85;8.30;;;;;;;;;;5114388;28;20262;-76
2021/04/15 00:55:30;;;;;;;9.20;8.20;;;;;;;;;;5101014;28;20170;-76
2021/04/15 00:57:56;;;;;;;9.80;8.40;;;;;;;;;;5103095;28;20199;-77
2021/04/15 01:00:26;;;;;;;12.45;8.10;;;;;;;;;;5112857;28;20213;-77
2021/04/15 01:02:52;;;;;;;10.07;8.75;;;;;;;;;;5095149;28;20193;-75
2021/04/15 01:05:24;;;;;;;10.50;8.70;;;;;;;;;;5095180;28;20188;-75
2021/04/15 01:07:51;;;;;;;13.15;8.48;;;;;;;;;;5092397;28;20195;-76
2021/04/15 01:10:18;;;;;;;10.48;8.95;;;;;;;;;;5095148;28;20198;-76
2021/04/15 01:12:52;;;;;;;10.35;9.30;;;;;;;;;;5095231;28;20180;-77
2021/04/15 01:15:31;;;;;;;13.48;9.35;;;;;;;;;;5100510;28;20278;-77
2021/04/15 01:18:03;;;;;;;13.57;9.88;;;;;;;;;;5095290;28;20203;-76
2021/04/15 01:20:48;;;;;;;13.77;8.32;;;;;;;;;;5095184;28;20203;-77
2021/04/15 01:23:32;;;;;;;9.95;8.35;;;;;;;;;;5101110;28;20643;-76
2021/04/15 01:26:10;;;;;;;14.18;9.43;;;;;;;;;;5111730;28;20191;-76
2021/04/15 01:28:41;;;;;;;11.90;8.27;;;;;;;;;;5094562;28;20582;-76
2021/04/15 01:31:11;;;;;;;9.00;7.45;;;;;;;;;;5113610;28;20258;-76
2021/04/15 01:33:40;;;;;;;10.13;8.05;;;;;;;;;;5105307;28;20200;-77
2021/04/15 01:36:16;;;;;;;9.55;7.78;;;;;;;;;;5094694;28;20203;-77
2021/04/15 01:38:49;;;;;;;9.38;7.65;;;;;;;;;;5097188;28;20194;-77
2021/04/15 01:41:21;;;;;;;10.70;8.13;;;;;;;;;;5101001;28;20255;-77
2021/04/15 01:43:52;;;;;;;14.73;8.40;;;;;;;;;;5094032;28;20167;-77
2021/04/15 01:46:20;;;;;;;10.63;8.02;;;;;;;;;;5099587;28;20195;-77
2021/04/15 01:48:50;;;;;;;11.68;7.97;;;;;;;;;;5081041;28;20272;-77
2021/04/15 01:51:16;;;;;;;10.00;8.43;;;;;;;;;;5094415;28;20263;-77
2021/04/15 01:53:45;;;;;;;12.20;9.33;;;;;;;;;;5101267;28;20596;-78
2021/04/15 01:56:11;;;;;;;10.90;8.20;;;;;;;;;;5093425;28;20849;-75
2021/04/15 01:58:41;;;;;;;11.83;8.70;;;;;;;;;;5097636;28;20204;-76
2021/04/15 02:01:09;;;;;;;12.05;9.30;;;;;;;;;;5093839;28;20509;-76
2021/04/15 02:03:37;;;;;;;11.40;8.43;;;;;;;;;;5093676;28;20761;-75
2021/04/15 02:06:04;;;;;;;12.40;8.65;;;;;;;;;;5094111;28;20200;-76
2021/04/15 02:08:36;;;;;;;9.93;8.93;;;;;;;;;;5094378;28;20531;-76
2021/04/15 02:11:10;;;;;;;12.60;8.40;;;;;;;;;;5096159;28;20176;-76
2021/04/15 02:13:38;;;;;;;13.23;9.60;;;;;;;;;;5107570;28;20178;-76
2021/04/15 02:16:05;;;;;;;10.63;8.40;;;;;;;;;;5093999;28;20657;-77
2021/04/15 02:18:34;;;;;;;12.70;9.15;;;;;;;;;;5093982;28;20632;-77
2021/04/15 02:21:04;;;;;;;13.77;8.98;;;;;;;;;;5093845;28;20175;-76
2021/04/15 02:23:35;;;;;;;16.13;10.40;;;;;;;;;;5093371;28;20646;-77
2021/04/15 02:26:11;;;;;;;14.27;9.60;;;;;;;;;;5093620;28;20192;-76
2021/04/15 02:28:42;;;;;;;10.27;8.50;;;;;;;;;;5094014;28;20190;-76
2021/04/15 02:31:14;;;;;;;14.23;9.10;;;;;;;;;;5092339;28;20216;-77
2021/04/15 02:33:49;;;;;;;11.88;9.45;;;;;;;;;;5093600;28;20176;-78
2021/04/15 02:36:16;;;;;;;13.77;9.73;;;;;;;;;;5097277;28;20203;-79
2021/04/15 02:39:01;;;;;;;12.38;8.73;;;;;;;;;;5099483;28;20585;-76
2021/04/15 02:41:28;;;;;;;13.23;9.65;;;;;;;;;;5091714;28;20181;-77
2021/04/15 02:44:00;;;;;;;10.57;8.43;;;;;;;;;;5093432;28;20171;-77
2021/04/15 02:46:35;;;;;;;13.07;9.15;;;;;;;;;;5112104;28;20190;-76
2021/04/15 02:49:02;;;;;;;12.10;8.93;;;;;;;;;;5109486;28;20175;-75
2021/04/15 02:51:30;;;;;;;14.27;9.40;;;;;;;;;;5113787;28;20211;-77
2021/04/15 02:54:05;;;;;;;13.77;9.27;;;;;;;;;;5106608;28;20187;-76
2021/04/15 02:56:51;;;;;;;11.35;9.07;;;;;;;;;;5080824;28;20199;-76
2021/04/15 02:59:19;;;;;;;10.52;8.40;;;;;;;;;;5090576;28;20702;-76
2021/04/15 03:01:48;;;;;;;9.75;8.75;;;;;;;;;;5103704;28;20634;-77
2021/04/15 03:04:19;;;;;;;10.25;9.05;;;;;;;;;;5113542;28;20248;-77
2021/04/15 03:06:45;;;;;;;14.77;8.43;;;;;;;;;;5112882;28;20199;-76
2021/04/15 03:09:11;;;;;;;12.50;8.77;;;;;;;;;;5095575;28;20194;-77
2021/04/15 03:11:43;;;;;;;12.32;9.07;;;;;;;;;;5092740;28;20184;-76
2021/04/15 03:14:11;;;;;;;12.43;8.93;;;;;;;;;;5101368;28;20189;-77
2021/04/15 03:16:42;;;;;;;11.20;9.10;;;;;;;;;;5105748;28;20206;-76
2021/04/15 03:19:13;;;;;;;11.15;8.70;;;;;;;;;;5114089;28;20202;-76
2021/04/15 03:21:39;;;;;;;9.30;7.97;;;;;;;;;;5103609;28;20612;-77
2021/04/15 03:24:05;;;;;;;10.20;9.07;;;;;;;;;;5113291;28;20261;-77
2021/04/15 03:26:40;;;;;;;11.43;9.27;;;;;;;;;;5100482;28;20450;-78
2021/04/15 03:29:25;;;;;;;11.77;10.00;;;;;;;;;;5091968;28;20240;-77
2021/04/15 03:31:58;;;;;;;12.50;9.00;;;;;;;;;;5096057;28;20221;-76
2021/04/15 03:34:31;;;;;;;11.38;8.40;;;;;;;;;;5104657;28;20198;-77
2021/04/15 03:36:58;;;;;;;10.35;8.88;;;;;;;;;;5100155;28;20242;-76
2021/04/15 03:39:28;;;;;;;9.23;8.27;;;;;;;;;;5093131;28;20199;-77
2021/04/15 03:41:55;;;;;;;10.48;8.80;;;;;;;;;;5082461;28;20251;-76
2021/04/15 03:44:27;;;;;;;9.93;8.30;;;;;;;;;;5092794;28;20754;-77
2021/04/15 03:47:08;;;;;;;10.40;8.48;;;;;;;;;;5092697;28;20250;-76
2021/04/15 03:49:40;;;;;;;13.55;9.20;;;;;;;;;;5106936;28;20180;-75
2021/04/15 03:52:18;;;;;;;10.57;8.43;;;;;;;;;;5092774;28;20202;-77
2021/04/15 03:54:47;;;;;;;11.90;7.50;;;;;;;;;;5086590;28;20175;-77
2021/04/15 03:57:16;;;;;;;10.73;7.97;;;;;;;;;;5091895;28;20206;-79
2021/04/15 03:59:51;;;;;;;11.80;8.70;;;;;;;;;;5094013;28;20253;-76
2021/04/15 04:02:21;;;;;;;17.13;8.70;;;;;;;;;;5096090;28;20174;-76
2021/04/15 04:04:52;;;;;;;11.38;8.65;;;;;;;;;;5111177;28;20193;-76
2021/04/15 04:07:23;;;;;;;11.57;8.60;;;;;;;;;;5092616;28;20227;-75
2021/04/15 04:09:53;;;;;;;11.82;9.63;;;;;;;;;;5093454;28;20184;-76
2021/04/15 04:12:23;;;;;;;10.93;8.95;;;;;;;;;;5103235;28;20182;-75
2021/04/15 04:14:52;;;;;;;10.55;9.25;;;;;;;;;;5100468;27;20168;-75
2021/04/15 04:17:20;;;;;;;13.70;10.05;;;;;;;;;;5084000;28;20209;-75
2021/04/15 04:19:52;;;;;;;11.38;9.20;;;;;;;;;;5101863;28;20191;-76
2021/04/15 04:22:37;;;;;;;15.00;9.60;;;;;;;;;;5111084;28;20255;-76
2021/04/15 04:25:03;;;;;;;12.15;9.13;;;;;;;;;;5101003;28;20171;-76
2021/04/15 04:27:31;;;;;;;14.40;10.43;;;;;;;;;;5109742;28;20691;-75
2021/04/15 04:30:01;;;;;;;11.75;10.05;;;;;;;;;;5096927;28;20401;-74
2021/04/15 04:32:28;;;;;;;16.08;10.25;;;;;;;;;;5095844;28;20532;-76
2021/04/15 04:34:55;;;;;;;13.13;10.45;;;;;;;;;;5098755;28;20179;-77
2021/04/15 04:37:23;;;;;;;11.80;9.85;;;;;;;;;;5095736;28;20206;-76
2021/04/15 04:39:50;;;;;;;12.00;9.50;;;;;;;;;;5095243;28;20195;-75
2021/04/15 04:42:20;;;;;;;19.80;13.55;;;;;;;;;;5106929;28;20185;-76
2021/04/15 04:44:54;;;;;;;12.95;10.23;;;;;;;;;;5096195;28;20565;-76
2021/04/15 04:47:38;;;;;;;14.88;11.60;;;;;;;;;;5096277;28;20279;-76
2021/04/15 04:50:04;;;;;;;13.45;10.63;;;;;;;;;;5099367;28;20259;-76
2021/04/15 04:52:32;;;;;;;14.70;11.10;;;;;;;;;;5096452;28;20222;-76
2021/04/15 04:54:59;;;;;;;12.50;10.43;;;;;;;;;;5095771;28;20456;-77
2021/04/15 04:57:27;;;;;;;13.30;11.45;;;;;;;;;;5099154;28;20199;-76
2021/04/15 05:00:13;;;;;;;14.60;10.25;;;;;;;;;;5114469;28;20255;-78
2021/04/15 05:02:40;;;;;;;14.55;10.55;;;;;;;;;;5096030;28;20233;-76
2021/04/15 05:05:15;;;;;;;15.73;11.70;;;;;;;;;;5111119;28;20232;-76
2021/04/15 05:07:42;;;;;;;13.35;11.00;;;;;;;;;;5111246;28;20233;-78
2021/04/15 05:10:08;;;;;;;13.10;10.95;;;;;;;;;;5100846;28;20182;-77
2021/04/15 05:12:35;;;;;;;14.75;10.75;;;;;;;;;;5102486;28;20251;-77
2021/04/15 05:15:02;;;;;;;13.23;11.25;;;;;;;;;;5104040;28;20220;-77
2021/04/15 05:17:32;;;;;;;12.60;10.45;;;;;;;;;;5099805;28;20195;-76
2021/04/15 05:20:04;;;;;;;15.00;10.40;;;;;;;;;;5095686;28;20380;-76
2021/04/15 05:22:35;;;;;;;12.73;9.63;;;;;;;;;;5095566;28;20184;-76
2021/04/15 05:25:06;;;;;;;16.48;8.77;;;;;;;;;;5094589;28;20237;-76
2021/04/15 05:27:34;;;;;;;11.07;9.43;;;;;;;;;;5105050;28;20526;-76
2021/04/15 05:30:18;;;;;;;12.50;9.80;;;;;;;;;;5095027;28;20191;-78
2021/04/15 05:32:46;;;;;;;15.38;9.35;;;;;;;;;;5086355;28;20176;-77
2021/04/15 05:35:15;;;;;;;11.20;9.77;;;;;;;;;;5108829;28;20183;-77
2021/04/15 05:37:41;;;;;;;12.02;9.63;;;;;;;;;;5097739;28;20210;-77
2021/04/15 05:40:07;;;;;;;14.07;9.35;;;;;;;;;;5092598;28;20557;-77
2021/04/15 05:42:40;;;;;;;13.07;10.23;;;;;;;;;;5097247;27;20179;-75
2021/04/15 05:45:18;;;;;;;16.42;10.20;;;;;;;;;;5110252;28;20523;-77
2021/04/15 05:47:47;;;;;;;14.75;12.02;;;;;;;;;;5107103;28;20194;-76
2021/04/15 05:50:20;;;;;;;14.48;11.20;;;;;;;;;;5097084;28;20266;-76
2021/04/15 05:52:54;;;;;;;19.23;13.30;;;;;;;;;;5093904;28;20256;-77
2021/04/15 05:55:33;;;;;;;21.20;10.85;;;;;;;;;;5093828;28;20194;-78
2021/04/15 05:58:09;;;;;;;11.40;9.60;;;;;;;;;;5094708;28;20683;-76
2021/04/15 06:00:57;;;;;;;15.07;10.35;;;;;;;;;;5083902;28;20243;-79
2021/04/15 06:03:33;;;;;;;11.82;10.50;;;;;;;;;;5093713;28;20207;-75
2021/04/15 06:06:11;;;;;;;13.35;10.25;;;;;;;;;;5108089;28;20277;-77
2021/04/15 06:08:38;;;;;;;15.07;9.73;;;;;;;;;;5094008;28;20203;-76
2021/04/15 06:11:08;;;;;;;12.00;10.60;;;;;;;;;;5109802;28;20527;-77
2021/04/15 06:13:54;;;;;;;14.35;11.60;;;;;;;;;;5101802;28;20175;-75
2021/04/15 06:16:24;;;;;;;11.98;9.80;;;;;;;;;;5112443;28;20187;-78
2021/04/15 06:18:52;;;;;;;19.35;10.10;;;;;;;;;;5094100;28;20191;-77
2021/04/15 06:21:26;;;;;;;12.43;9.40;;;;;;;;;;5108983;28;20531;-78
2021/04/15 06:23:52;;;;;;;11.90;10.38;;;;;;;;;;5113881;28;20169;-78
2021/04/15 06:26:50;;;;;;;13.68;10.55;;;;;;;;;;5097204;28;20295;-79
2021/04/15 06:29:28;;;;;;;11.82;9.77;;;;;;;;;;5055568;28;20250;-77
2021/04/15 06:31:57;;;;;;;14.23;9.75;;;;;;;;;;5093467;28;20228;-77
2021/04/15 06:34:23;;;;;;;12.85;9.55;;;;;;;;;;5095315;28;20628;-79
2021/04/15 06:37:12;;;;;;;11.45;9.20;;;;;;;;;;5107794;28;20315;-76
2021/04/15 06:40:05;;;;;;;12.45;8.60;;;;;;;;;;5087274;27;20766;-77
2021/04/15 06:42:33;;;;;;;10.95;8.90;;;;;;;;;;5075693;28;20191;-79
2021/04/15 06:44:59;;;;;;;8.88;7.70;;;;;;;;;;5094002;28;20187;-78
2021/04/15 06:47:28;;;;;;;28.63;18.77;;;;;;;;;;5085254;28;20221;-76
2021/04/15 06:49:58;;;;;;;58.42;35.80;;;;;;;;;;5094482;28;20456;-76
2021/04/15 06:52:44;;;;;;;50.10;28.75;;;;;;;;;;5104177;28;20193;-78
2021/04/15 06:55:18;;;;;;;21.05;16.73;;;;;;;;;;5102187;28;20542;-77
2021/04/15 06:58:03;;;;;;;10.07;9.07;;;;;;;;;;5090175;28;20259;-78
2021/04/15 07:00:35;;;;;;;17.58;9.52;;;;;;;;;;5089087;28;20207;-78
2021/04/15 07:03:09;;;;;;;12.35;10.02;;;;;;;;;;5087323;28;20184;-78
2021/04/15 07:05:38;;;;;;;11.48;7.55;;;;;;;;;;5087528;28;20187;-77
2021/04/15 07:08:04;;;;;;;7.95;7.13;;;;;;;;;;5087747;28;20648;-76
2021/04/15 07:10:41;;;;;;;7.20;6.50;;;;;;;;;;5090414;28;20194;-77
2021/04/15 07:13:10;;;;;;;8.68;6.63;;;;;;;;;;5082280;28;20175;-77
2021/04/15 07:15:42;;;;;;;23.55;17.13;;;;;;;;;;5096242;28;20190;-77
2021/04/15 07:18:31;;;;;;;13.77;9.45;;;;;;;;;;5093395;28;20900;-78
2021/04/15 07:20:57;;;;;;;11.75;7.50;;;;;;;;;;5089511;28;20191;-77
2021/04/15 07:23:32;;;;;;;15.43;8.70;;;;;;;;;;5089024;28;20182;-78
2021/04/15 07:25:58;;;;;;;10.60;7.90;;;;;;;;;;5082779;28;20566;-78
2021/04/15 07:28:42;;;;;;;11.07;9.27;;;;;;;;;;5089279;28;20262;-78
2021/04/15 07:31:22;;;;;;;9.35;6.13;;;;;;;;;;5085074;28;21186;-78
2021/04/15 07:34:07;;;;;;;9.10;6.68;;;;;;;;;;5088862;28;20847;-78
2021/04/15 07:36:38;;;;;;;8.07;6.85;;;;;;;;;;5075465;28;20564;-78
2021/04/15 07:39:04;;;;;;;9.23;6.80;;;;;;;;;;5089839;28;20592;-78
2021/04/15 07:41:41;;;;;;;9.63;6.50;;;;;;;;;;5095239;28;20198;-77
2021/04/15 07:44:10;;;;;;;8.25;7.18;;;;;;;;;;5091263;28;20395;-78
2021/04/15 07:46:35;;;;;;;8.40;6.43;;;;;;;;;;5093253;28;20199;-78
2021/04/15 07:49:15;;;;;;;8.67;6.60;;;;;;;;;;5092649;28;20180;-77
2021/04/15 07:51:46;;;;;;;9.95;6.38;;;;;;;;;;5092690;28;20855;-77
2021/04/15 07:54:29;;;;;;;7.50;5.72;;;;;;;;;;5112433;28;20621;-78
2021/04/15 07:56:55;;;;;;;6.20;5.35;;;;;;;;;;5098194;28;20574;-79
2021/04/15 07:59:44;;;;;;;6.13;5.10;;;;;;;;;;5093048;28;20222;-78
2021/04/15 08:02:30;;;;;;;6.00;5.20;;;;;;;;;;5092390;28;20431;-78
2021/04/15 08:05:05;;;;;;;5.70;5.15;;;;;;;;;;5092208;28;20188;-78
2021/04/15 08:07:43;;;;;;;7.07;5.07;;;;;;;;;;5092843;28;20563;-78
2021/04/15 08:10:09;;;;;;;4.78;3.50;;;;;;;;;;5096557;28;20178;-80
2021/04/15 08:12:54;;;;;;;3.20;2.90;;;;;;;;;;5111724;28;20783;-78
2021/04/15 08:15:26;;;;;;;3.75;3.10;;;;;;;;;;5099255;28;20412;-78
2021/04/15 08:18:04;;;;;;;4.97;2.92;;;;;;;;;;5098784;28;20203;-78
2021/04/15 08:20:49;;;;;;;4.68;2.60;;;;;;;;;;5092550;28;20198;-78
2021/04/15 08:23:34;;;;;;;4.78;2.88;;;;;;;;;;5096762;28;20239;-78
2021/04/15 08:26:19;;;;;;;3.33;2.70;;;;;;;;;;5112385;28;20198;-78
2021/04/15 08:28:44;;;;;;;4.15;2.72;;;;;;;;;;5102207;28;20182;-78
2021/04/15 08:31:29;;;;;;;3.43;2.93;;;;;;;;;;5095948;27;20251;-78
2021/04/15 08:34:11;;;;;;;5.53;2.70;;;;;;;;;;5092174;28;20497;-78
2021/04/15 08:36:55;;;;;;;3.80;2.70;;;;;;;;;;5092283;28;20273;-77
2021/04/15 08:39:23;;;;;;;3.75;2.58;;;;;;;;;;5095301;28;20202;-78
2021/04/15 08:41:49;;;;;;;3.65;2.28;;;;;;;;;;5107397;28;20221;-77
2021/04/15 08:44:15;;;;;;;2.40;1.90;;;;;;;;;;5091964;28;20229;-79
2021/04/15 08:46:44;;;;;;;3.33;2.00;;;;;;;;;;5092021;28;20748;-79
2021/04/15 08:49:14;;;;;;;4.38;2.00;;;;;;;;;;5109907;28;20448;-77
2021/04/15 08:51:40;;;;;;;3.15;2.00;;;;;;;;;;5103258;28;20548;-79
2021/04/15 08:54:12;;;;;;;3.42;2.38;;;;;;;;;;5104925;28;20183;-79
2021/04/15 08:56:57;;;;;;;2.58;1.90;;;;;;;;;;5091191;28;20203;-77
2021/04/15 08:59:38;;;;;;;3.63;2.40;;;;;;;;;;5079805;28;20206;-77
2021/04/15 09:02:19;;;;;;;2.20;1.85;;;;;;;;;;5096094;28;20175;-78
2021/04/15 09:04:58;;;;;;;2.95;1.80;;;;;;;;;;5091461;28;20270;-76
2021/04/15 09:07:31;;;;;;;3.78;1.80;;;;;;;;;;5091344;28;20600;-78
2021/04/15 09:09:56;;;;;;;2.33;1.80;;;;;;;;;;5091421;28;20632;-78
2021/04/15 09:12:41;;;;;;;2.80;1.90;;;;;;;;;;5091089;28;20236;-78
2021/04/15 09:15:19;;;;;;;2.20;1.60;;;;;;;;;;5091097;28;20917;-78
2021/04/15 09:17:52;;;;;;;2.30;1.50;;;;;;;;;;5091497;28;20643;-78
2021/04/15 09:20:23;;;;;;;2.45;1.52;;;;;;;;;;5091469;28;20750;-78
2021/04/15 09:22:58;;;;;;;2.40;1.50;;;;;;;;;;5099353;28;20187;-77
2021/04/15 09:25:24;;;;;;;2.67;1.50;;;;;;;;;;5111696;28;20175;-77
2021/04/15 09:28:04;;;;;;;5.77;3.80;;;;;;;;;;5093077;28;20226;-77
2021/04/15 09:30:32;;;;;;;2.30;1.75;;;;;;;;;;5091548;28;20462;-77
2021/04/15 09:33:03;;;;;;;4.32;2.00;;;;;;;;;;5099908;28;20313;-78
2021/04/15 09:35:47;;;;;;;3.13;1.50;;;;;;;;;;5090445;28;20179;-78
2021/04/15 09:38:33;;;;;;;2.58;1.88;;;;;;;;;;5078975;28;20201;-77
2021/04/15 09:41:19;;;;;;;2.35;1.70;;;;;;;;;;5090535;28;20213;-78
2021/04/15 09:43:44;;;;;;;3.33;1.58;;;;;;;;;;5100543;28;20175;-79
2021/04/15 09:46:10;;;;;;;2.10;1.30;;;;;;;;;;5097034;28;20263;-78
2021/04/15 09:48:46;;;;;;;2.00;1.20;;;;;;;;;;5098495;28;20918;-78
2021/04/15 09:51:12;;;;;;;3.00;1.40;;;;;;;;;;5081326;28;20470;-77
2021/04/15 09:53:57;;;;;;;2.20;1.40;;;;;;;;;;5104097;28;20457;-78
2021/04/15 09:56:41;;;;;;;2.37;1.63;;;;;;;;;;5101168;28;20817;-77
2021/04/15 09:59:26;;;;;;;125.40;112.20;;;;;;;;;;5109975;28;20511;-78
2021/04/15 10:01:56;;;;;;;2.83;1.30;;;;;;;;;;5098120;28;20480;-78
2021/04/15 10:04:38;;;;;;;2.13;1.13;;;;;;;;;;5079828;28;20429;-78
2021/04/15 10:07:14;;;;;;;2.87;1.70;;;;;;;;;;5090258;28;20501;-77
2021/04/15 10:09:49;;;;;;;2.80;1.73;;;;;;;;;;5097856;28;20428;-76
2021/04/15 10:12:23;;;;;;;2.67;1.60;;;;;;;;;;5078543;28;20965;-79
2021/04/15 10:15:04;;;;;;;2.47;1.40;;;;;;;;;;5101137;28;20873;-77
2021/04/15 10:17:33;;;;;;;2.58;1.40;;;;;;;;;;5097307;28;20448;-79
2021/04/15 10:20:09;;;;;;;2.00;1.27;;;;;;;;;;5091293;28;20563;-78
2021/04/15 10:22:35;;;;;;;2.75;1.40;;;;;;;;;;5090349;28;20718;-77
2021/04/15 10:25:10;;;;;;;2.40;1.67;;;;;;;;;;5093650;28;20183;-78
2021/04/15 10:27:42;;;;;;;4.78;1.25;;;;;;;;;;5094921;28;20468;-79
2021/04/15 10:30:17;;;;;;;2.08;1.45;;;;;;;;;;5098797;28;20232;-77
2021/04/15 10:32:52;;;;;;;2.30;1.47;;;;;;;;;;5100686;28;20198;-78
2021/04/15 10:35:29;;;;;;;2.60;1.30;;;;;;;;;;5091126;28;20928;-78
2021/04/15 10:38:13;;;;;;;2.10;1.50;;;;;;;;;;5099962;28;20912;-78
2021/04/15 10:40:53;;;;;;;3.30;1.77;;;;;;;;;;5101756;28;20464;-76
2021/04/15 10:43:29;;;;;;;2.07;1.70;;;;;;;;;;5102930;28;20433;-78
2021/04/15 10:46:04;;;;;;;2.10;1.57;;;;;;;;;;5094445;28;20422;-78
2021/04/15 10:48:30;;;;;;;2.30;1.63;;;;;;;;;;5090253;28;20934;-77
2021/04/15 10:50:58;;;;;;;2.20;1.70;;;;;;;;;;5090715;28;20183;-76
2021/04/15 10:53:36;;;;;;;2.60;1.70;;;;;;;;;;5090047;28;20444;-75
2021/04/15 10:56:08;;;;;;;3.80;2.00;;;;;;;;;;5080861;28;20229;-77
2021/04/15 10:58:42;;;;;;;3.10;2.17;;;;;;;;;;5088856;28;20211;-78
2021/04/15 11:01:26;;;;;;;2.55;2.00;;;;;;;;;;5089232;28;20198;-78
2021/04/15 11:03:56;;;;;;;3.08;1.80;;;;;;;;;;5094036;28;20212;-77
2021/04/15 11:06:32;;;;;;;3.67;1.80;;;;;;;;;;5094351;28;20301;-74
2021/04/15 11:09:34;;;;;;;4.03;2.00;;;;;;;;;;5089320;28;20186;-72
2021/04/15 11:12:15;;;;;;;5.90;1.70;;;;;;;;;;5066550;28;20618;-74
2021/04/15 11:14:41;;;;;;;2.25;1.63;;;;;;;;;;5082750;28;20195;-73
2021/04/15 11:17:16;;;;;;;3.23;1.70;;;;;;;;;;5087165;28;20213;-75
2021/04/15 11:19:42;;;;;;;2.88;1.80;;;;;;;;;;5085310;28;20478;-75
2021/04/15 11:22:14;;;;;;;2.92;1.60;;;;;;;;;;5089727;28;20183;-73
2021/04/15 11:24:42;;;;;;;3.22;1.85;;;;;;;;;;5088829;28;20509;-74
2021/04/15 11:27:09;;;;;;;2.40;1.95;;;;;;;;;;5089252;28;20207;-74
2021/04/15 11:29:42;;;;;;;2.50;1.80;;;;;;;;;;5089340;28;21400;-73
2021/04/15 11:32:26;;;;;;;2.40;1.60;;;;;;;;;;5087957;28;20215;-74
2021/04/15 11:35:03;;;;;;;5.72;2.08;;;;;;;;;;5088225;28;20183;-74
2021/04/15 11:37:29;;;;;;;2.63;1.77;;;;;;;;;;5089282;28;20273;-74
2021/04/15 11:40:13;;;;;;;2.70;1.75;;;;;;;;;;5101146;28;20267;-74
2021/04/15 11:42:40;;;;;;;2.10;1.67;;;;;;;;;;5085707;28;20183;-74
2021/04/15 11:45:06;;;;;;;2.53;1.80;;;;;;;;;;5098238;28;20174;-73
2021/04/15 11:47:34;;;;;;;2.20;1.70;;;;;;;;;;5089056;28;20210;-74
2021/04/15 11:50:12;;;;;;;2.83;1.60;;;;;;;;;;5087199;28;20648;-73
2021/04/15 11:52:41;;;;;;;2.13;1.40;;;;;;;;;;5088599;28;20241;-74
2021/04/15 11:55:22;;;;;;;2.42;1.70;;;;;;;;;;5092839;28;20183;-73
2021/04/15 11:57:55;;;;;;;2.27;1.60;;;;;;;;;;5081023;28;20214;-74
2021/04/15 12:00:23;;;;;;;2.20;1.83;;;;;;;;;;5088255;28;20471;-74
2021/04/15 12:02:50;;;;;;;2.20;1.50;;;;;;;;;;5089367;28;20410;-74
2021/04/15 12:05:16;;;;;;;3.40;1.80;;;;;;;;;;5095626;28;20436;-72
2021/04/15 12:07:45;;;;;;;2.53;1.90;;;;;;;;;;5100627;28;20192;-74
2021/04/15 12:10:11;;;;;;;2.55;1.92;;;;;;;;;;5100766;28;20182;-73
2021/04/15 12:12:39;;;;;;;3.72;1.75;;;;;;;;;;5095000;28;20183;-74
2021/04/15 12:15:06;;;;;;;2.85;1.90;;;;;;;;;;5088288;28;20258;-77
2021/04/15 12:17:53;;;;;;;4.15;1.60;;;;;;;;;;5088101;28;20579;-74
2021/04/15 12:20:39;;;;;;;3.38;1.80;;;;;;;;;;5088759;28;20197;-74
2021/04/15 12:23:14;;;;;;;2.60;1.60;;;;;;;;;;5081306;28;20294;-74
2021/04/15 12:26:00;;;;;;;2.75;1.90;;;;;;;;;;5088744;28;20203;-74
2021/04/15 12:28:40;;;;;;;2.40;1.60;;;;;;;;;;5081527;28;20211;-73
2021/04/15 12:31:18;;;;;;;2.83;1.70;;;;;;;;;;5093610;28;20183;-73
2021/04/15 12:34:07;;;;;;;2.47;1.70;;;;;;;;;;5076222;28;20181;-74
2021/04/15 12:36:37;;;;;;;2.20;1.60;;;;;;;;;;5089012;28;20214;-73
2021/04/15 12:39:07;;;;;;;2.95;2.00;;;;;;;;;;5098890;28;20199;-74
2021/04/15 12:41:33;;;;;;;3.35;1.73;;;;;;;;;;5112868;28;20185;-74
2021/04/15 12:44:05;;;;;;;2.05;1.40;;;;;;;;;;5106985;27;20184;-74
2021/04/15 12:46:31;;;;;;;2.35;1.70;;;;;;;;;;5101713;28;20194;-73
2021/04/15 12:49:00;;;;;;;2.15;1.30;;;;;;;;;;5110335;28;20653;-74
2021/04/15 12:51:30;;;;;;;2.00;1.40;;;;;;;;;;5112749;28;20179;-73
2021/04/15 12:53:57;;;;;;;2.53;1.40;;;;;;;;;;5098513;28;20612;-74
2021/04/15 12:56:32;;;;;;;5.65;1.40;;;;;;;;;;5112220;28;20247;-74
2021/04/15 12:58:58;;;;;;;2.15;1.30;;;;;;;;;;5101518;28;20182;-72
2021/04/15 13:01:27;;;;;;;2.70;1.30;;;;;;;;;;5110187;28;20258;-73
2021/04/15 13:03:53;;;;;;;1.80;1.10;;;;;;;;;;5092027;28;20237;-74
2021/04/15 13:06:20;;;;;;;2.20;1.40;;;;;;;;;;5091360;28;20207;-75
2021/04/15 13:08:46;;;;;;;1.92;1.10;;;;;;;;;;5091037;28;20695;-73
2021/04/15 13:11:18;;;;;;;1.90;1.20;;;;;;;;;;5103376;28;20265;-73
2021/04/15 13:13:44;;;;;;;2.20;1.23;;;;;;;;;;5091746;28;20425;-74
2021/04/15 13:16:29;;;;;;;2.57;1.10;;;;;;;;;;5090855;28;20230;-74
2021/04/15 13:18:55;;;;;;;2.00;1.30;;;;;;;;;;5091379;28;20482;-75
2021/04/15 13:21:26;;;;;;;1.90;1.27;;;;;;;;;;5090446;28;20189;-74
2021/04/15 13:23:52;;;;;;;3.70;1.37;;;;;;;;;;5090999;28;20888;-74
2021/04/15 13:26:25;;;;;;;2.80;1.10;;;;;;;;;;5102313;28;20431;-74
2021/04/15 13:28:50;;;;;;;2.20;1.20;;;;;;;;;;5094680;28;20931;-74
2021/04/15 13:31:35;;;;;;;2.87;1.40;;;;;;;;;;5107146;28;20427;-74
2021/04/15 13:34:04;;;;;;;2.67;1.70;;;;;;;;;;5099574;28;20905;-74
2021/04/15 13:36:30;;;;;;;1.90;1.42;;;;;;;;;;5091165;28;20517;-74
2021/04/15 13:38:58;;;;;;;2.50;1.63;;;;;;;;;;5090991;28;20172;-74
2021/04/15 13:41:24;;;;;;;4.63;2.08;;;;;;;;;;5090512;28;20179;-74
2021/04/15 13:43:55;;;;;;;2.20;1.75;;;;;;;;;;5090600;28;20201;-73
2021/04/15 13:49:02;;;;;;;3.47;1.85;;;;;;;;;;5092357;28;20183;-75
2021/04/15 13:51:29;;;;;;;4.05;1.35;;;;;;;;;;5074752;28;20210;-74
2021/04/15 13:53:58;;;;;;;2.40;1.73;;;;;;;;;;5090282;28;20258;-73
2021/04/15 13:56:42;;;;;;;3.10;1.75;;;;;;;;;;5090091;28;20195;-73
2021/04/15 13:59:27;;;;;;;2.38;1.60;;;;;;;;;;5090170;28;20533;-73
2021/04/15 14:01:53;;;;;;;3.80;1.80;;;;;;;;;;5091023;28;20175;-73
2021/04/15 14:04:38;;;;;;;3.47;1.60;;;;;;;;;;5098358;28;20217;-73
2021/04/15 14:07:22;;;;;;;2.10;1.42;;;;;;;;;;5094093;28;20480;-73
2021/04/15 14:09:56;;;;;;;3.58;1.63;;;;;;;;;;5083055;28;20202;-73
2021/04/15 14:12:35;;;;;;;4.10;3.75;;;;;;;;;;5077248;28;20176;-73
2021/04/15 14:15:01;;;;;;;2.10;1.40;;;;;;;;;;5090194;28;20260;-72
2021/04/15 14:17:30;;;;;;;1.90;1.15;;;;;;;;;;5090252;28;20230;-74
2021/04/15 14:20:07;;;;;;;2.10;1.20;;;;;;;;;;5090432;28;20215;-73
2021/04/15 14:22:34;;;;;;;2.75;1.42;;;;;;;;;;5102503;28;20182;-74
2021/04/15 14:25:18;;;;;;;2.15;1.67;;;;;;;;;;5091007;28;20266;-74
2021/04/15 14:27:44;;;;;;;2.75;1.50;;;;;;;;;;5089868;28;20254;-73
2021/04/15 14:30:13;;;;;;;2.50;1.80;;;;;;;;;;5098202;28;20182;-73
2021/04/15 14:32:39;;;;;;;2.35;1.70;;;;;;;;;;5092255;28;20215;-73
2021/04/15 14:35:32;;;;;;;2.10;1.60;;;;;;;;;;5089646;28;20205;-73
2021/04/15 14:38:05;;;;;;;2.72;1.75;;;;;;;;;;5087155;28;20230;-73
2021/04/15 14:40:34;;;;;;;2.50;1.60;;;;;;;;;;5089278;28;20207;-74
2021/04/15 14:43:10;;;;;;;2.20;1.63;;;;;;;;;;5109622;28;20177;-74
2021/04/15 14:45:36;;;;;;;2.80;2.40;;;;;;;;;;5098470;28;20632;-74
2021/04/15 14:48:04;;;;;;;2.47;1.80;;;;;;;;;;5100436;28;20183;-74
2021/04/15 14:50:41;;;;;;;2.80;1.95;;;;;;;;;;5089777;28;20263;-74
2021/04/15 14:53:14;;;;;;;3.65;2.15;;;;;;;;;;5089088;28;20183;-75
2021/04/15 14:55:41;;;;;;;2.60;1.70;;;;;;;;;;5089835;28;20185;-74
2021/04/15 14:58:13;;;;;;;2.80;1.92;;;;;;;;;;5089565;28;20183;-74
2021/04/15 15:00:51;;;;;;;2.40;1.50;;;;;;;;;;5103123;28;20284;-74
2021/04/15 15:03:19;;;;;;;2.30;1.60;;;;;;;;;;5089258;28;20684;-74
2021/04/15 15:05:45;;;;;;;3.40;1.80;;;;;;;;;;5076082;28;20175;-77
2021/04/15 15:08:13;;;;;;;2.50;1.55;;;;;;;;;;5089448;28;20202;-76
2021/04/15 15:10:40;;;;;;;2.40;1.70;;;;;;;;;;5108814;28;20535;-77